KSTL

St Louis Lambert International Airport

St Louis, Missouri, USA
METAR KSTL 210351Z 13005KT 10SM CLR 06/03 A2998 RMK AO2 SLP156 T00560033
Observed Flight Rules
Jan-21 @ 03:51 UTC (52 minutes ago) Visual Flight Rules
Wind Visibility Clouds
130° at 5 knots 10 miles
  • Clear skies
Temperatures Readings
Current 6°C / 43°F
Dewpoint 3°C / 37°F
Humidity 81%
Altimeter 29.98" Hg
Pressure 1015.6 hPa
Elevation 171
METAR KSTL 210351Z 13005KT 10SM CLR 06/03 A2998 RMK AO2 SLP156 T00560033
Observed Flight Rules
Jan-21 @ 03:51 UTC
(52 minutes ago)
VFR
Wind Visibility
130° at 5 knots 10 miles
Clouds
  • Clear skies
Temperature Dewpoint
6°C / 43°F 3°C / 37°F
Humidity Altimeter Pressure
81% 29.98" Hg 1015.6 hPa